Terminal Aerodrome Forecast
Issued by NWS

Home | Current Version | Previous Version | Text Only | Print | Product List | Glossary On
Versions: 1 2 3 4 5 6 7 8 9 10 11 12 13
000
FTAK31 PAJN 172300
TAFAWG
TAF
PAWG 172320Z 1800/1824 VRB06KT P6SM -SHRA SCT030 BKN050
     FM180200 14007KT P6SM VCSH SCT035 BKN070
     FM180800 14010KT P6SM -RA SCT040 OVC050
     FM181500 12007KT P6SM VCSH BKN050 OVC080
     FM182200 13009KT P6SM -RA BKN035 OVC050
      AMD LTD TO CLD VIS AND WIND 1806/1815=

USA.gov is the U.S. government's official web portal to all federal, state and local government web resources and services.